Time;durP1;ratioP1;P1;durP2;ratioP2;P2;SDS_P1;SDS_P2;PMS_P1;PMS_P2;Temp;Humidity;BMP_temperature;BMP_pressure;BME280_temperature;BME280_humidity;BME280_pressure;Samples;Min_cycle;Max_cycle;Signal;HPM_P1;HPM_P2
2023/06/19 00:00:32;;;;;;;7.53;5.65;;;;;;;;;;5135833;27;20042;-80
2023/06/19 00:02:58;;;;;;;7.78;6.05;;;;;;;;;;5153842;27;20050;-80
2023/06/19 00:05:25;;;;;;;7.80;5.82;;;;;;;;;;5141317;27;20129;-79
2023/06/19 00:07:51;;;;;;;8.52;5.70;;;;;;;;;;5146170;27;20405;-77
2023/06/19 00:10:18;;;;;;;8.20;5.63;;;;;;;;;;5120138;27;20043;-77
2023/06/19 00:12:44;;;;;;;6.93;5.90;;;;;;;;;;5142160;27;20047;-78
2023/06/19 00:15:10;;;;;;;8.77;5.65;;;;;;;;;;5132619;27;20038;-77
2023/06/19 00:17:39;;;;;;;9.65;5.75;;;;;;;;;;5153745;27;20038;-78
2023/06/19 00:20:06;;;;;;;9.27;5.82;;;;;;;;;;5129523;27;20046;-78
2023/06/19 00:22:32;;;;;;;7.50;5.65;;;;;;;;;;5115831;27;20395;-78
2023/06/19 00:24:58;;;;;;;8.75;5.40;;;;;;;;;;5134977;27;20083;-78
2023/06/19 00:27:26;;;;;;;7.45;5.53;;;;;;;;;;5115320;27;20043;-78
2023/06/19 00:29:52;;;;;;;7.25;5.70;;;;;;;;;;5107522;27;20125;-78
2023/06/19 00:32:18;;;;;;;8.27;5.68;;;;;;;;;;5139863;27;20041;-78
2023/06/19 00:34:44;;;;;;;7.53;5.72;;;;;;;;;;5133902;27;20035;-78
2023/06/19 00:37:13;;;;;;;8.25;5.70;;;;;;;;;;5133492;27;20040;-78
2023/06/19 00:39:40;;;;;;;8.23;5.55;;;;;;;;;;5119474;27;20058;-78
2023/06/19 00:42:06;;;;;;;6.75;5.20;;;;;;;;;;5153524;27;20095;-78
2023/06/19 00:44:32;;;;;;;9.48;6.18;;;;;;;;;;5153486;27;20034;-78
2023/06/19 00:46:59;;;;;;;7.57;6.07;;;;;;;;;;5150879;27;20125;-79
2023/06/19 00:49:29;;;;;;;8.55;5.70;;;;;;;;;;5133345;27;20051;-78
2023/06/19 00:51:55;;;;;;;6.50;5.57;;;;;;;;;;5133383;27;20077;-79
2023/06/19 00:54:21;;;;;;;8.13;5.50;;;;;;;;;;5121272;27;20034;-80
2023/06/19 00:56:48;;;;;;;11.73;6.20;;;;;;;;;;5143418;27;20055;-79
2023/06/19 00:59:18;;;;;;;7.47;5.70;;;;;;;;;;5144171;27;20035;-78
2023/06/19 01:01:45;;;;;;;8.13;5.78;;;;;;;;;;5153542;27;20046;-79
2023/06/19 01:04:11;;;;;;;7.35;5.90;;;;;;;;;;5101001;27;20156;-79
2023/06/19 01:06:44;;;;;;;7.32;5.63;;;;;;;;;;5135290;27;20039;-79
2023/06/19 01:09:12;;;;;;;7.22;5.85;;;;;;;;;;5130068;28;20078;-78
2023/06/19 01:11:41;;;;;;;8.18;5.70;;;;;;;;;;5133058;28;20039;-80
2023/06/19 01:14:09;;;;;;;6.78;5.63;;;;;;;;;;5105394;27;20455;-79
2023/06/19 01:16:35;;;;;;;9.02;5.93;;;;;;;;;;5152218;27;20491;-78
2023/06/19 01:19:02;;;;;;;9.00;5.88;;;;;;;;;;5135972;27;20038;-79
2023/06/19 01:21:28;;;;;;;7.60;6.15;;;;;;;;;;5136743;27;20095;-79
2023/06/19 01:23:54;;;;;;;7.65;6.00;;;;;;;;;;5144905;27;20511;-79
2023/06/19 01:26:20;;;;;;;7.75;5.60;;;;;;;;;;5127026;27;20095;-79
2023/06/19 01:28:47;;;;;;;11.77;6.35;;;;;;;;;;5152639;27;20466;-79
2023/06/19 01:31:20;;;;;;;7.22;5.85;;;;;;;;;;5120507;27;20185;-79
2023/06/19 01:33:48;;;;;;;11.13;6.25;;;;;;;;;;5151455;27;20035;-79
2023/06/19 01:36:15;;;;;;;7.53;5.78;;;;;;;;;;5136768;27;20410;-79
2023/06/19 01:38:41;;;;;;;7.85;5.60;;;;;;;;;;5135873;27;20043;-78
2023/06/19 01:41:07;;;;;;;9.52;5.85;;;;;;;;;;5148630;27;20423;-78
2023/06/19 01:43:33;;;;;;;7.70;5.95;;;;;;;;;;5137868;27;20047;-78
2023/06/19 01:46:00;;;;;;;6.90;5.57;;;;;;;;;;5142083;27;20050;-79
2023/06/19 01:48:27;;;;;;;9.85;6.13;;;;;;;;;;5150923;27;20391;-79
2023/06/19 01:50:53;;;;;;;7.72;6.22;;;;;;;;;;5138664;27;20050;-79
2023/06/19 01:53:19;;;;;;;8.75;6.10;;;;;;;;;;5138700;27;20043;-79
2023/06/19 01:55:45;;;;;;;9.75;5.95;;;;;;;;;;5157415;27;20099;-79
2023/06/19 01:58:11;;;;;;;7.65;6.47;;;;;;;;;;5138179;27;20597;-79
2023/06/19 02:00:37;;;;;;;7.82;6.15;;;;;;;;;;5156996;27;20038;-79
2023/06/19 02:03:04;;;;;;;9.02;6.18;;;;;;;;;;5156994;27;20054;-78
2023/06/19 02:05:31;;;;;;;8.52;6.40;;;;;;;;;;5156808;27;20050;-79
2023/06/19 02:07:57;;;;;;;7.88;5.90;;;;;;;;;;5155138;27;20399;-78
2023/06/19 02:10:23;;;;;;;7.07;5.95;;;;;;;;;;5153107;27;20119;-79
2023/06/19 02:12:49;;;;;;;8.13;6.70;;;;;;;;;;5152187;27;20169;-78
2023/06/19 02:15:15;;;;;;;8.82;6.20;;;;;;;;;;5136938;27;20408;-78
2023/06/19 02:17:42;;;;;;;8.25;6.32;;;;;;;;;;5136664;27;20147;-79
2023/06/19 02:20:11;;;;;;;8.93;6.40;;;;;;;;;;5155456;27;20045;-78
2023/06/19 02:22:38;;;;;;;8.13;6.20;;;;;;;;;;5155334;27;20046;-80
2023/06/19 02:25:05;;;;;;;9.18;6.63;;;;;;;;;;5136293;27;20113;-79
2023/06/19 02:27:31;;;;;;;9.35;6.47;;;;;;;;;;5155235;27;20390;-79
2023/06/19 02:29:57;;;;;;;7.68;6.30;;;;;;;;;;5155168;27;20203;-80
2023/06/19 02:32:23;;;;;;;8.57;7.03;;;;;;;;;;5155825;27;20049;-80
2023/06/19 02:34:50;;;;;;;8.00;6.78;;;;;;;;;;5136736;27;20096;-80
2023/06/19 02:37:16;;;;;;;10.93;6.43;;;;;;;;;;5150208;27;20039;-80
2023/06/19 02:39:42;;;;;;;7.53;6.10;;;;;;;;;;5115829;28;20074;-78
2023/06/19 02:42:08;;;;;;;7.97;6.50;;;;;;;;;;5116325;28;20047;-79
2023/06/19 02:44:34;;;;;;;7.70;6.35;;;;;;;;;;5133532;28;20035;-79
2023/06/19 02:47:00;;;;;;;9.38;6.43;;;;;;;;;;5133430;28;20067;-79
2023/06/19 02:49:26;;;;;;;8.48;6.72;;;;;;;;;;5115978;28;20470;-79
2023/06/19 02:51:52;;;;;;;9.15;6.75;;;;;;;;;;5098821;28;20039;-79
2023/06/19 02:54:18;;;;;;;7.47;6.20;;;;;;;;;;5134239;28;20118;-79
2023/06/19 02:56:44;;;;;;;10.45;6.70;;;;;;;;;;5133848;28;20054;-78
2023/06/19 02:59:10;;;;;;;7.95;6.00;;;;;;;;;;5125185;27;20393;-79
2023/06/19 03:01:37;;;;;;;10.90;6.40;;;;;;;;;;5155107;27;20038;-79
2023/06/19 03:04:03;;;;;;;8.63;6.25;;;;;;;;;;5154832;27;20467;-78
2023/06/19 03:06:29;;;;;;;8.50;6.53;;;;;;;;;;5152250;27;20494;-79
2023/06/19 03:08:55;;;;;;;8.43;6.75;;;;;;;;;;5097221;27;1105462;-78
2023/06/19 03:11:21;;;;;;;9.35;6.72;;;;;;;;;;5155435;27;20047;-79
2023/06/19 03:13:47;;;;;;;10.50;6.05;;;;;;;;;;5155414;27;20089;-79
2023/06/19 03:16:14;;;;;;;9.57;6.72;;;;;;;;;;5155731;27;20130;-79
2023/06/19 03:18:41;;;;;;;7.68;6.20;;;;;;;;;;5155715;27;20236;-79
2023/06/19 03:21:07;;;;;;;7.97;6.57;;;;;;;;;;5154529;27;20050;-78
2023/06/19 03:23:33;;;;;;;9.05;6.93;;;;;;;;;;5155491;27;20431;-79
2023/06/19 03:25:59;;;;;;;12.98;6.10;;;;;;;;;;5155364;27;20042;-79
2023/06/19 03:28:25;;;;;;;7.88;6.50;;;;;;;;;;5155187;27;20116;-79
2023/06/19 03:30:52;;;;;;;9.10;6.70;;;;;;;;;;5154967;27;20043;-79
2023/06/19 03:33:18;;;;;;;8.27;6.70;;;;;;;;;;5153408;27;20370;-79
2023/06/19 03:35:44;;;;;;;8.25;6.18;;;;;;;;;;5115542;27;20452;-79
2023/06/19 03:38:10;;;;;;;8.77;6.60;;;;;;;;;;5113761;27;20506;-79
2023/06/19 03:40:36;;;;;;;8.57;6.63;;;;;;;;;;5133938;27;20043;-79
2023/06/19 03:43:02;;;;;;;8.27;6.63;;;;;;;;;;5133986;27;20053;-78
2023/06/19 03:45:28;;;;;;;8.98;6.78;;;;;;;;;;5116401;27;20411;-78
2023/06/19 03:47:54;;;;;;;9.77;7.18;;;;;;;;;;5134409;27;20436;-79
2023/06/19 03:50:20;;;;;;;7.20;6.38;;;;;;;;;;5134237;27;20104;-79
2023/06/19 03:52:46;;;;;;;8.77;7.03;;;;;;;;;;5133161;27;20047;-78
2023/06/19 03:55:12;;;;;;;10.40;6.95;;;;;;;;;;5133972;27;20043;-79
2023/06/19 03:57:38;;;;;;;9.90;6.22;;;;;;;;;;5115770;27;20047;-78
2023/06/19 04:00:08;;;;;;;9.38;6.38;;;;;;;;;;5151199;27;20047;-79
2023/06/19 04:02:34;;;;;;;7.75;6.25;;;;;;;;;;5152563;27;20039;-78
2023/06/19 04:05:00;;;;;;;8.27;6.25;;;;;;;;;;5154547;27;20476;-78
2023/06/19 04:07:26;;;;;;;10.25;6.13;;;;;;;;;;5154474;27;20050;-79
2023/06/19 04:09:53;;;;;;;8.98;6.65;;;;;;;;;;5154540;27;20440;-79
2023/06/19 04:12:19;;;;;;;7.95;6.43;;;;;;;;;;5136071;27;20042;-80
2023/06/19 04:14:45;;;;;;;7.68;6.28;;;;;;;;;;5154459;27;20450;-79
2023/06/19 04:17:11;;;;;;;8.93;6.53;;;;;;;;;;5154488;27;20131;-79
2023/06/19 04:19:37;;;;;;;8.07;5.97;;;;;;;;;;5154242;27;20035;-79
2023/06/19 04:22:03;;;;;;;8.40;6.10;;;;;;;;;;5154585;27;20046;-79
2023/06/19 04:24:29;;;;;;;8.68;6.70;;;;;;;;;;5152459;27;20047;-79
2023/06/19 04:26:55;;;;;;;7.10;5.82;;;;;;;;;;5154172;27;20456;-79
2023/06/19 04:29:21;;;;;;;8.57;6.15;;;;;;;;;;5152945;27;20039;-79
2023/06/19 04:31:47;;;;;;;9.32;6.35;;;;;;;;;;5154054;27;20141;-80
2023/06/19 04:34:16;;;;;;;9.18;6.25;;;;;;;;;;5154036;27;20039;-79
2023/06/19 04:36:42;;;;;;;11.32;6.28;;;;;;;;;;5136763;27;20085;-78
2023/06/19 04:39:09;;;;;;;8.48;6.13;;;;;;;;;;5156016;27;20038;-79
2023/06/19 04:41:38;;;;;;;7.88;6.28;;;;;;;;;;5136785;27;20057;-80
2023/06/19 04:44:05;;;;;;;7.97;5.72;;;;;;;;;;5154041;27;20039;-79
2023/06/19 04:46:31;;;;;;;9.15;5.70;;;;;;;;;;5154484;27;20413;-79
2023/06/19 04:48:57;;;;;;;7.80;5.50;;;;;;;;;;5153960;27;20046;-79
2023/06/19 04:51:23;;;;;;;5.65;4.78;;;;;;;;;;5154016;27;20498;-80
2023/06/19 04:53:49;;;;;;;7.50;5.20;;;;;;;;;;5135266;27;20090;-79
2023/06/19 04:56:15;;;;;;;6.38;5.07;;;;;;;;;;5153733;27;20099;-79
2023/06/19 04:58:48;;;;;;;7.18;4.50;;;;;;;;;;5150919;27;20091;-79
2023/06/19 05:01:15;;;;;;;8.15;4.93;;;;;;;;;;5134971;27;20053;-80
2023/06/19 05:03:41;;;;;;;11.45;4.57;;;;;;;;;;5153653;27;20380;-79
2023/06/19 05:06:08;;;;;;;10.90;4.80;;;;;;;;;;5153720;27;20037;-79
2023/06/19 05:08:37;;;;;;;6.22;4.38;;;;;;;;;;5135016;27;20138;-79
2023/06/19 05:11:03;;;;;;;7.13;4.70;;;;;;;;;;5153320;27;20490;-80
2023/06/19 05:13:29;;;;;;;10.32;4.95;;;;;;;;;;5153582;27;20122;-80
2023/06/19 05:15:56;;;;;;;7.10;4.45;;;;;;;;;;5135439;27;20447;-79
2023/06/19 05:18:22;;;;;;;10.70;4.90;;;;;;;;;;5154302;27;20408;-78
2023/06/19 05:20:48;;;;;;;8.27;4.53;;;;;;;;;;5153472;27;20397;-78
2023/06/19 05:23:15;;;;;;;7.13;4.70;;;;;;;;;;5154266;27;20129;-78
2023/06/19 05:25:42;;;;;;;6.82;4.75;;;;;;;;;;5133294;27;20034;-79
2023/06/19 05:28:08;;;;;;;8.73;4.68;;;;;;;;;;5134740;27;20091;-78
2023/06/19 05:30:35;;;;;;;7.47;4.78;;;;;;;;;;5153285;27;20495;-75
2023/06/19 05:33:01;;;;;;;7.13;4.93;;;;;;;;;;5153324;27;20117;-78
2023/06/19 05:35:28;;;;;;;6.13;4.82;;;;;;;;;;5153686;27;20339;-76
2023/06/19 05:37:54;;;;;;;10.07;4.93;;;;;;;;;;5153297;27;20053;-76
2023/06/19 05:40:20;;;;;;;7.38;4.97;;;;;;;;;;5153115;27;20442;-76
2023/06/19 05:42:46;;;;;;;9.13;4.90;;;;;;;;;;5150109;27;20051;-76
2023/06/19 05:45:12;;;;;;;8.93;5.38;;;;;;;;;;5113776;28;20051;-76
2023/06/19 05:47:38;;;;;;;6.55;4.88;;;;;;;;;;5132444;28;20035;-77
2023/06/19 05:50:04;;;;;;;10.75;5.00;;;;;;;;;;5113852;28;20099;-76
2023/06/19 05:52:30;;;;;;;6.68;5.10;;;;;;;;;;5132677;28;20108;-75
2023/06/19 05:54:58;;;;;;;8.52;4.85;;;;;;;;;;5128079;27;20039;-76
2023/06/19 05:57:24;;;;;;;9.52;5.95;;;;;;;;;;5134244;27;20054;-76
2023/06/19 05:59:52;;;;;;;10.43;5.57;;;;;;;;;;5134845;27;20038;-76
2023/06/19 06:02:20;;;;;;;8.18;5.97;;;;;;;;;;5155619;27;20046;-76
2023/06/19 06:04:46;;;;;;;8.20;5.80;;;;;;;;;;5155983;27;20043;-75
2023/06/19 06:07:13;;;;;;;9.93;6.50;;;;;;;;;;5143540;27;20043;-75
2023/06/19 06:09:39;;;;;;;12.20;6.72;;;;;;;;;;5139409;27;20050;-75
2023/06/19 06:12:06;;;;;;;13.35;6.55;;;;;;;;;;5132040;27;20074;-75
2023/06/19 06:14:32;;;;;;;9.93;6.65;;;;;;;;;;5149892;27;20129;-76
2023/06/19 06:16:58;;;;;;;7.60;6.32;;;;;;;;;;5156536;27;20047;-75
2023/06/19 06:19:24;;;;;;;8.18;6.13;;;;;;;;;;5141261;27;20043;-75
2023/06/19 06:21:50;;;;;;;9.77;7.30;;;;;;;;;;5156535;27;20107;-75
2023/06/19 06:24:16;;;;;;;12.80;7.10;;;;;;;;;;5147264;27;20039;-76
2023/06/19 06:26:43;;;;;;;11.15;7.30;;;;;;;;;;5156395;27;20046;-75
2023/06/19 06:29:09;;;;;;;12.75;7.10;;;;;;;;;;5126792;27;20034;-76
2023/06/19 06:31:35;;;;;;;9.70;7.70;;;;;;;;;;5150100;27;20042;-75
2023/06/19 06:34:01;;;;;;;13.15;7.75;;;;;;;;;;5132284;27;20103;-76
2023/06/19 06:36:27;;;;;;;15.15;7.97;;;;;;;;;;5148125;27;20043;-74
2023/06/19 06:38:53;;;;;;;11.15;7.97;;;;;;;;;;5135606;27;20050;-74
2023/06/19 06:41:20;;;;;;;13.90;7.72;;;;;;;;;;5135476;27;20344;-74
2023/06/19 06:43:46;;;;;;;9.68;7.20;;;;;;;;;;5139510;27;20042;-74
2023/06/19 06:46:12;;;;;;;9.65;7.00;;;;;;;;;;5143355;27;20388;-74
2023/06/19 06:48:39;;;;;;;9.68;6.85;;;;;;;;;;5135452;27;20051;-74
2023/06/19 06:51:05;;;;;;;7.45;6.50;;;;;;;;;;5154572;27;20047;-74
2023/06/19 06:53:32;;;;;;;9.77;6.35;;;;;;;;;;5137639;27;20039;-74
2023/06/19 06:56:01;;;;;;;10.45;6.32;;;;;;;;;;5154966;27;20112;-73
2023/06/19 06:58:27;;;;;;;9.02;5.90;;;;;;;;;;5137092;27;20183;-74
2023/06/19 07:00:53;;;;;;;9.73;5.72;;;;;;;;;;5126210;27;20050;-74
2023/06/19 07:03:19;;;;;;;9.07;6.43;;;;;;;;;;5117680;27;20046;-74
2023/06/19 07:05:45;;;;;;;11.80;7.18;;;;;;;;;;5135285;27;20043;-74
2023/06/19 07:08:12;;;;;;;11.30;8.45;;;;;;;;;;5124947;27;20055;-74
2023/06/19 07:10:38;;;;;;;10.65;7.78;;;;;;;;;;5143516;27;20070;-75
2023/06/19 07:13:04;;;;;;;10.85;7.82;;;;;;;;;;5132810;27;20119;-75
2023/06/19 07:15:30;;;;;;;12.15;7.45;;;;;;;;;;5134469;27;20080;-75
2023/06/19 07:17:56;;;;;;;10.90;7.65;;;;;;;;;;5134346;27;20126;-75
2023/06/19 07:20:22;;;;;;;11.85;8.00;;;;;;;;;;5135670;27;20126;-75
2023/06/19 07:22:50;;;;;;;11.00;7.68;;;;;;;;;;5135217;27;20074;-75
2023/06/19 07:25:19;;;;;;;8.57;7.55;;;;;;;;;;5135206;27;20126;-75
2023/06/19 07:27:45;;;;;;;10.05;8.93;;;;;;;;;;5135324;27;20421;-75
2023/06/19 07:30:12;;;;;;;13.68;9.73;;;;;;;;;;5144803;27;20539;-75
2023/06/19 07:32:38;;;;;;;11.23;9.40;;;;;;;;;;5155833;27;20125;-75
2023/06/19 07:35:05;;;;;;;14.85;10.45;;;;;;;;;;5136569;27;20038;-75
2023/06/19 07:37:31;;;;;;;14.13;11.25;;;;;;;;;;5154326;27;20046;-75
2023/06/19 07:39:57;;;;;;;17.15;11.88;;;;;;;;;;5154886;27;20395;-74
2023/06/19 07:42:48;;;;;;;16.13;12.32;;;;;;;;;;5120816;22;20842;-74
2023/06/19 07:45:14;;;;;;;18.83;13.20;;;;;;;;;;5097604;28;20047;-75
2023/06/19 07:47:41;;;;;;;16.15;13.23;;;;;;;;;;5108488;28;20122;-75
2023/06/19 07:50:07;;;;;;;16.60;13.05;;;;;;;;;;5108656;28;20043;-75
2023/06/19 07:52:33;;;;;;;18.95;12.30;;;;;;;;;;5107358;28;20423;-75
2023/06/19 07:55:00;;;;;;;17.20;12.75;;;;;;;;;;5106634;28;20134;-75
2023/06/19 07:57:26;;;;;;;17.48;14.00;;;;;;;;;;5107155;28;20343;-74
2023/06/19 07:59:53;;;;;;;18.65;13.73;;;;;;;;;;5109090;28;20388;-71
2023/06/19 08:02:19;;;;;;;20.75;13.00;;;;;;;;;;5107856;28;20436;-73
2023/06/19 08:04:46;;;;;;;16.65;12.60;;;;;;;;;;5094466;28;20073;-73
2023/06/19 08:07:12;;;;;;;16.70;12.73;;;;;;;;;;5090915;28;20123;-75
2023/06/19 08:09:39;;;;;;;19.45;13.20;;;;;;;;;;5100427;28;20114;-74
2023/06/19 08:12:05;;;;;;;19.55;12.50;;;;;;;;;;5110257;28;20043;-74
2023/06/19 08:14:31;;;;;;;13.80;11.07;;;;;;;;;;5107612;28;20039;-74
2023/06/19 08:16:57;;;;;;;15.50;11.63;;;;;;;;;;5109515;28;20055;-75
2023/06/19 08:19:23;;;;;;;13.02;9.82;;;;;;;;;;5090243;28;20050;-74
2023/06/19 08:21:49;;;;;;;12.52;9.20;;;;;;;;;;5110704;28;20039;-72
2023/06/19 08:24:15;;;;;;;11.18;8.90;;;;;;;;;;5090770;28;20047;-73
2023/06/19 08:26:41;;;;;;;11.52;8.93;;;;;;;;;;5102020;28;20127;-74
2023/06/19 08:29:08;;;;;;;12.50;8.27;;;;;;;;;;5088077;28;20070;-74
2023/06/19 08:31:34;;;;;;;10.55;8.20;;;;;;;;;;5099765;28;20039;-78
2023/06/19 08:34:00;;;;;;;9.65;7.50;;;;;;;;;;5089359;28;20047;-74
2023/06/19 08:36:26;;;;;;;9.95;7.50;;;;;;;;;;5107465;28;20048;-73
2023/06/19 08:38:52;;;;;;;14.68;7.40;;;;;;;;;;5088317;28;20040;-73
2023/06/19 08:41:19;;;;;;;10.13;6.95;;;;;;;;;;5088814;28;20281;-73
2023/06/19 08:43:45;;;;;;;9.43;6.75;;;;;;;;;;5089334;28;20561;-74
2023/06/19 08:46:18;;;;;;;10.10;6.95;;;;;;;;;;5108572;28;20101;-74
2023/06/19 08:48:45;;;;;;;9.90;7.25;;;;;;;;;;5106778;28;20039;-74
2023/06/19 08:51:11;;;;;;;12.93;7.03;;;;;;;;;;5088183;28;20052;-74
2023/06/19 08:53:44;;;;;;;16.90;7.25;;;;;;;;;;5086560;28;20437;-74
2023/06/19 08:56:11;;;;;;;10.98;6.40;;;;;;;;;;5087114;28;20138;-75
2023/06/19 08:58:37;;;;;;;9.18;6.03;;;;;;;;;;5080981;28;20127;-74
2023/06/19 09:01:03;;;;;;;10.15;6.25;;;;;;;;;;5089505;28;20093;-74
2023/06/19 09:03:29;;;;;;;9.07;5.53;;;;;;;;;;5090303;28;20084;-74
2023/06/19 09:05:55;;;;;;;8.90;5.88;;;;;;;;;;5110818;28;20403;-73
2023/06/19 09:08:22;;;;;;;8.52;5.80;;;;;;;;;;5089660;28;20043;-74
2023/06/19 09:10:56;;;;;;;8.45;5.80;;;;;;;;;;5088827;28;20115;-74
2023/06/19 09:13:22;;;;;;;9.20;5.18;;;;;;;;;;5107345;28;20086;-74
2023/06/19 09:15:50;;;;;;;9.82;5.60;;;;;;;;;;5106823;28;20047;-74
2023/06/19 09:18:16;;;;;;;10.35;4.30;;;;;;;;;;5089561;28;20409;-74
2023/06/19 09:20:47;;;;;;;8.20;4.85;;;;;;;;;;5107432;28;20043;-74
2023/06/19 09:23:13;;;;;;;7.72;4.35;;;;;;;;;;5088885;28;20455;-73
2023/06/19 09:25:49;;;;;;;7.95;4.22;;;;;;;;;;5107090;28;20465;-74
2023/06/19 09:28:22;;;;;;;6.85;4.32;;;;;;;;;;5107034;28;20043;-73
2023/06/19 09:31:02;;;;;;;6.35;4.40;;;;;;;;;;5088871;28;20075;-73
2023/06/19 09:33:29;;;;;;;9.40;4.68;;;;;;;;;;5107291;28;20456;-73
2023/06/19 09:35:57;;;;;;;8.52;4.68;;;;;;;;;;5109371;28;20043;-73
2023/06/19 09:38:33;;;;;;;9.10;4.82;;;;;;;;;;5111699;28;20047;-73
2023/06/19 09:41:03;;;;;;;8.38;4.72;;;;;;;;;;5111569;28;20462;-73
2023/06/19 09:43:39;;;;;;;7.75;4.18;;;;;;;;;;5108487;28;20059;-73
2023/06/19 09:46:06;;;;;;;6.55;4.50;;;;;;;;;;5111357;28;20101;-73
2023/06/19 09:48:34;;;;;;;10.43;4.95;;;;;;;;;;5109313;28;20069;-75
2023/06/19 09:51:04;;;;;;;8.48;5.65;;;;;;;;;;5110071;28;20055;-75
2023/06/19 09:53:31;;;;;;;8.25;4.80;;;;;;;;;;5091694;28;20411;-75
2023/06/19 09:55:57;;;;;;;9.80;5.88;;;;;;;;;;5110519;28;20039;-75
2023/06/19 09:58:23;;;;;;;8.38;5.53;;;;;;;;;;5107284;28;20384;-75
2023/06/19 10:00:50;;;;;;;11.45;6.53;;;;;;;;;;5071057;28;20940;-75
2023/06/19 10:03:17;;;;;;;10.07;6.75;;;;;;;;;;5089046;28;20080;-75
2023/06/19 10:05:43;;;;;;;9.20;6.63;;;;;;;;;;5064868;28;20395;-75
2023/06/19 10:08:10;;;;;;;9.85;7.03;;;;;;;;;;5090841;28;20058;-76
2023/06/19 10:10:36;;;;;;;11.68;6.88;;;;;;;;;;5089510;28;20048;-76
2023/06/19 10:13:13;;;;;;;13.43;8.60;;;;;;;;;;5089549;28;20123;-76
2023/06/19 10:15:43;;;;;;;10.60;8.20;;;;;;;;;;5089460;28;20086;-76
2023/06/19 10:18:13;;;;;;;12.48;7.97;;;;;;;;;;5089728;28;20078;-76
2023/06/19 10:20:40;;;;;;;10.82;7.80;;;;;;;;;;5071840;28;20502;-76
2023/06/19 10:23:10;;;;;;;10.48;7.90;;;;;;;;;;5073405;28;20054;-76
2023/06/19 10:25:46;;;;;;;10.02;8.35;;;;;;;;;;5091044;28;20114;-76
2023/06/19 10:28:25;;;;;;;12.43;8.27;;;;;;;;;;5071822;28;20127;-76
2023/06/19 10:30:54;;;;;;;11.60;8.80;;;;;;;;;;5089505;28;20475;-76
2023/06/19 10:33:21;;;;;;;14.45;8.88;;;;;;;;;;5070789;28;20460;-76
2023/06/19 10:35:47;;;;;;;11.95;8.98;;;;;;;;;;5089065;28;20445;-76
2023/06/19 10:38:15;;;;;;;13.55;9.00;;;;;;;;;;5071763;28;20058;-76
2023/06/19 10:40:41;;;;;;;9.40;7.63;;;;;;;;;;5070240;28;20079;-76
2023/06/19 10:43:07;;;;;;;12.18;7.43;;;;;;;;;;5086013;28;20075;-76
2023/06/19 10:45:33;;;;;;;16.52;9.98;;;;;;;;;;5051103;28;20044;-76
2023/06/19 10:48:05;;;;;;;11.07;8.70;;;;;;;;;;5068861;28;20067;-75
2023/06/19 10:50:43;;;;;;;10.15;8.23;;;;;;;;;;5050679;28;20151;-73
2023/06/19 10:53:09;;;;;;;13.90;9.43;;;;;;;;;;5070628;28;20056;-74
2023/06/19 10:55:35;;;;;;;10.15;8.20;;;;;;;;;;5088173;28;20531;-73
2023/06/19 10:58:01;;;;;;;11.73;8.27;;;;;;;;;;5089670;28;20040;-73
2023/06/19 11:00:28;;;;;;;9.35;7.60;;;;;;;;;;5070611;28;20127;-73
2023/06/19 11:02:56;;;;;;;15.38;8.23;;;;;;;;;;5068512;28;20036;-77
2023/06/19 11:05:22;;;;;;;13.02;7.65;;;;;;;;;;5083070;28;20514;-78
2023/06/19 11:07:55;;;;;;;10.18;7.57;;;;;;;;;;5084853;28;20377;-77
2023/06/19 11:10:24;;;;;;;10.35;8.40;;;;;;;;;;5085779;28;20052;-77
2023/06/19 11:12:54;;;;;;;11.38;8.40;;;;;;;;;;5085308;28;20400;-77
2023/06/19 11:15:20;;;;;;;15.40;8.80;;;;;;;;;;5084941;28;20040;-77
2023/06/19 11:17:46;;;;;;;16.05;9.40;;;;;;;;;;5085030;28;20047;-76
2023/06/19 11:20:16;;;;;;;15.85;9.48;;;;;;;;;;5085434;28;20048;-76
2023/06/19 11:22:42;;;;;;;12.52;8.98;;;;;;;;;;5084125;28;20577;-77
2023/06/19 11:25:10;;;;;;;13.63;8.55;;;;;;;;;;5086577;28;20052;-76
2023/06/19 11:27:39;;;;;;;11.70;7.95;;;;;;;;;;5085064;28;20052;-76
2023/06/19 11:30:06;;;;;;;12.10;8.05;;;;;;;;;;5085856;28;20092;-76
2023/06/19 11:32:40;;;;;;;10.02;7.38;;;;;;;;;;5066437;28;20085;-76
2023/06/19 11:35:08;;;;;;;11.02;8.25;;;;;;;;;;5050278;28;20040;-77
2023/06/19 11:37:37;;;;;;;10.90;8.40;;;;;;;;;;5084294;28;20048;-77
2023/06/19 11:40:10;;;;;;;12.07;7.35;;;;;;;;;;5085826;28;20086;-74
2023/06/19 11:42:44;;;;;;;12.00;6.95;;;;;;;;;;5068969;28;20519;-74
2023/06/19 11:45:10;;;;;;;9.55;6.82;;;;;;;;;;5088578;28;20052;-73
2023/06/19 11:47:37;;;;;;;13.23;8.25;;;;;;;;;;5088921;28;20051;-74
2023/06/19 11:50:07;;;;;;;12.27;8.15;;;;;;;;;;5086824;28;20040;-74
2023/06/19 11:52:33;;;;;;;12.43;8.63;;;;;;;;;;5078021;28;20053;-74
2023/06/19 11:55:00;;;;;;;12.70;8.57;;;;;;;;;;5092148;28;20104;-76
2023/06/19 11:57:27;;;;;;;12.90;8.15;;;;;;;;;;5092294;28;20055;-76
2023/06/19 11:59:53;;;;;;;13.05;7.97;;;;;;;;;;5092752;28;20032;-76
2023/06/19 12:02:19;;;;;;;14.63;8.95;;;;;;;;;;5074894;28;20087;-76
2023/06/19 12:04:45;;;;;;;13.05;8.40;;;;;;;;;;5092520;28;20047;-76
2023/06/19 12:07:11;;;;;;;14.85;8.73;;;;;;;;;;5074675;28;20505;-76
2023/06/19 12:09:38;;;;;;;13.48;9.38;;;;;;;;;;5093116;28;20042;-79
2023/06/19 12:12:05;;;;;;;11.20;8.68;;;;;;;;;;5092482;28;20059;-75
2023/06/19 12:14:31;;;;;;;15.20;9.35;;;;;;;;;;5092259;28;20042;-75
2023/06/19 12:16:57;;;;;;;13.80;9.32;;;;;;;;;;5092707;28;20395;-76
2023/06/19 12:19:23;;;;;;;15.55;8.38;;;;;;;;;;5089669;28;20046;-76
2023/06/19 12:21:50;;;;;;;11.40;7.93;;;;;;;;;;5092639;28;20048;-76
2023/06/19 12:24:16;;;;;;;12.38;9.23;;;;;;;;;;5092455;28;20048;-76
2023/06/19 12:26:42;;;;;;;14.10;8.23;;;;;;;;;;5092276;28;20051;-76
2023/06/19 12:29:08;;;;;;;11.15;9.13;;;;;;;;;;5092533;28;20126;-76
2023/06/19 12:31:39;;;;;;;12.23;9.00;;;;;;;;;;5091735;28;20186;-77
2023/06/19 12:34:06;;;;;;;13.15;8.80;;;;;;;;;;5091763;28;20125;-76
2023/06/19 12:36:32;;;;;;;10.35;7.50;;;;;;;;;;5089608;28;20488;-73
2023/06/19 12:38:59;;;;;;;13.88;9.23;;;;;;;;;;5074252;28;20083;-73
2023/06/19 12:41:25;;;;;;;13.18;9.65;;;;;;;;;;5092067;28;20484;-74
2023/06/19 12:43:51;;;;;;;13.63;9.02;;;;;;;;;;5100591;28;20056;-74
2023/06/19 12:46:17;;;;;;;15.27;9.13;;;;;;;;;;5094790;28;20123;-73
2023/06/19 12:48:43;;;;;;;13.23;8.77;;;;;;;;;;5074185;28;20051;-74
2023/06/19 12:51:10;;;;;;;15.65;9.07;;;;;;;;;;5074174;28;20044;-74
2023/06/19 12:53:36;;;;;;;11.27;8.27;;;;;;;;;;5102382;28;20066;-74
2023/06/19 12:56:02;;;;;;;11.73;8.43;;;;;;;;;;5112551;28;20047;-74
2023/06/19 12:58:28;;;;;;;11.73;8.35;;;;;;;;;;5093223;28;20043;-74
2023/06/19 13:00:54;;;;;;;10.70;8.32;;;;;;;;;;5074151;28;20483;-73
2023/06/19 13:03:20;;;;;;;11.75;8.02;;;;;;;;;;5100354;28;20043;-73
2023/06/19 13:05:47;;;;;;;11.63;8.48;;;;;;;;;;5108523;28;20047;-73
2023/06/19 13:08:13;;;;;;;11.65;7.63;;;;;;;;;;5101472;28;20039;-73
2023/06/19 13:10:40;;;;;;;12.13;8.00;;;;;;;;;;5097670;28;20047;-73
2023/06/19 13:13:06;;;;;;;10.90;7.78;;;;;;;;;;5115673;28;20047;-73
2023/06/19 13:15:35;;;;;;;11.95;7.50;;;;;;;;;;5115624;28;20096;-73
2023/06/19 13:18:01;;;;;;;11.85;7.50;;;;;;;;;;5108706;28;20050;-73
2023/06/19 13:20:27;;;;;;;11.68;7.30;;;;;;;;;;5115329;28;20078;-73
2023/06/19 13:22:54;;;;;;;12.85;7.35;;;;;;;;;;5115251;28;20058;-73
2023/06/19 13:25:20;;;;;;;8.07;5.85;;;;;;;;;;5107773;28;20387;-72
2023/06/19 13:27:46;;;;;;;10.10;6.38;;;;;;;;;;5095287;28;20040;-73
2023/06/19 13:30:13;;;;;;;10.07;7.10;;;;;;;;;;5094682;28;20040;-73
2023/06/19 13:32:39;;;;;;;13.95;7.30;;;;;;;;;;5093894;28;20054;-73
2023/06/19 13:35:08;;;;;;;11.88;7.85;;;;;;;;;;5094341;28;20040;-73
2023/06/19 13:37:35;;;;;;;9.93;6.53;;;;;;;;;;5093629;28;20047;-73
2023/06/19 13:40:03;;;;;;;10.13;7.18;;;;;;;;;;5094609;28;20092;-73
2023/06/19 13:42:30;;;;;;;9.75;6.95;;;;;;;;;;5074899;28;20434;-72
2023/06/19 13:44:56;;;;;;;9.23;6.32;;;;;;;;;;5094059;28;20059;-73
2023/06/19 13:47:25;;;;;;;10.55;7.15;;;;;;;;;;5085874;28;20438;-73
2023/06/19 13:49:51;;;;;;;9.52;7.00;;;;;;;;;;5090451;28;20059;-73
2023/06/19 13:52:17;;;;;;;10.07;6.22;;;;;;;;;;5092048;28;20070;-73
2023/06/19 13:54:43;;;;;;;9.10;6.60;;;;;;;;;;5072858;28;20498;-73
2023/06/19 13:57:10;;;;;;;8.70;6.60;;;;;;;;;;5090813;28;20044;-73
2023/06/19 13:59:36;;;;;;;8.65;6.15;;;;;;;;;;5093148;28;20102;-73
2023/06/19 14:02:02;;;;;;;9.02;7.10;;;;;;;;;;5093022;28;20036;-72
2023/06/19 14:04:28;;;;;;;10.50;7.25;;;;;;;;;;5092538;28;20082;-72
2023/06/19 14:06:54;;;;;;;8.88;6.20;;;;;;;;;;5074362;28;20438;-72
2023/06/19 14:09:21;;;;;;;10.55;6.53;;;;;;;;;;5092519;28;20044;-73
2023/06/19 14:11:47;;;;;;;9.00;6.50;;;;;;;;;;5071484;28;20070;-73
2023/06/19 14:14:13;;;;;;;8.25;5.90;;;;;;;;;;5092439;28;20040;-72
2023/06/19 14:16:39;;;;;;;9.75;5.68;;;;;;;;;;5092255;28;20087;-73
2023/06/19 14:19:06;;;;;;;8.50;6.55;;;;;;;;;;5091970;28;20089;-72
2023/06/19 14:21:32;;;;;;;9.52;6.57;;;;;;;;;;5091406;28;20055;-73
2023/06/19 14:23:58;;;;;;;10.25;6.78;;;;;;;;;;5093551;28;20051;-73
2023/06/19 14:26:24;;;;;;;7.78;5.82;;;;;;;;;;5092276;28;20090;-73
2023/06/19 14:28:55;;;;;;;8.02;6.05;;;;;;;;;;5091179;28;20044;-73
2023/06/19 14:31:21;;;;;;;9.65;6.43;;;;;;;;;;5092568;28;20080;-73
2023/06/19 14:33:47;;;;;;;8.52;5.82;;;;;;;;;;5092702;28;20044;-73